メインページ
METAR-TAF:

METAR-TAF

空港 :

スポケーン国際空港

スポケーン, ワシントン, アメリカ合衆国

緯度: 47-37-17N, 経度: 117-31-40W, 海抜: 723m

現時点の気象観測

当レポートは19分前の00:53(UTC)に作成
西の風 5kt
気温 27°C
湿度 28%
気圧 1011 hPa
視程: 16.1km
高度6000ftの雲はほとんどない
高度13000ftの雲はほとんどない
高度20000ftの千切れ雲あり
高度25000ftの曇り

METAR: KGEG 240053Z 28005KT 10SM FEW060 FEW130 BKN200 OVC250 27/07 A2986 RMK AO2 SLP095 VIRGA T02720072

時間: 18:12 (01:12 UTC)

予報

当レポートは1時間45分前の23:27(UTC)に作成
予報は24日の 00時(UTC)から 24日の 24時(UTC)まで有効
南西の風 4kt
視程: 10km
高度7000ftの雲はほとんどない
高度15000ftの雲は散在している
高度20000ftの曇り
24日の 0800時(UTC)から
の風 5kt
視程: 10km
高度12000ftの雲は散在している
高度20000ftの千切れ雲あり
24日の 1500時(UTC)から
南/南西の風 12kt
視程: 10km
高度20000ftの曇り
24日の 2000時(UTC)から
南西の風 16kt、最大24ktの突風を伴う
視程: 10km
高度20000ftの千切れ雲あり

TAF: KGEG 232327Z 2400/2424 22004KT P6SM FEW070 SCT150 OVC200 FM240800 18005KT P6SM SCT120 BKN200 FM241500 21012KT P6SM OVC200 FM242000 23016G24KT P6SM BKN200

4,000以上の空港の気象観測と天気予報(METAR報とTAF報)

利用可能な観測所は地図上に黄色い丸と赤い丸で示す。

丸の上にカーソルを重ねると観測所名を参照できる。

次にクリックすると気象観測と天気予報を参照できる。

マップの切り替え:黒色「×」印の緑ボタンをクリックして拡大、「-」印の緑ボタンをクリックして縮小、緑色の三角印をクリックして隣りの地図に切り替え


METAR-TAF: